createdAt,value
2022-10-14T00:01:14.253Z,15.40
2022-10-14T00:03:43.072Z,15.30
2022-10-14T00:06:13.867Z,15.30
2022-10-14T00:08:44.849Z,15.30
2022-10-14T00:11:16.135Z,15.30
2022-10-14T00:13:44.391Z,15.20
2022-10-14T00:16:18.806Z,15.20
2022-10-14T00:18:47.077Z,15.20
2022-10-14T00:21:15.774Z,15.20
2022-10-14T00:23:44.177Z,15.10
2022-10-14T00:26:19.097Z,15.00
2022-10-14T00:28:47.516Z,15.10
2022-10-14T00:31:16.555Z,15.00
2022-10-14T00:33:45.285Z,15.20
2022-10-14T00:36:15.228Z,15.00
2022-10-14T00:38:45.295Z,14.90
2022-10-14T00:41:14.335Z,14.90
2022-10-14T00:44:05.106Z,14.90
2022-10-14T00:46:35.240Z,14.90
2022-10-14T00:49:07.653Z,14.90
2022-10-14T00:51:37.729Z,14.80
2022-10-14T00:54:06.785Z,14.90
2022-10-14T00:56:36.178Z,14.90
2022-10-14T00:59:06.759Z,14.90
2022-10-14T01:01:35.598Z,14.80
2022-10-14T01:04:03.970Z,14.90
2022-10-14T01:06:44.019Z,14.80
2022-10-14T01:09:21.707Z,14.80
2022-10-14T01:12:27.045Z,14.80
2022-10-14T01:14:59.976Z,14.70
2022-10-14T01:17:36.884Z,14.70
2022-10-14T01:20:30.011Z,14.70
2022-10-14T01:23:14.283Z,14.70
2022-10-14T01:25:56.848Z,14.60
2022-10-14T01:28:36.683Z,14.50
2022-10-14T01:31:10.425Z,14.60
2022-10-14T01:33:41.376Z,14.50
2022-10-14T01:36:14.560Z,14.40
2022-10-14T01:38:46.341Z,14.50
2022-10-14T01:41:19.416Z,14.40
2022-10-14T01:43:50.746Z,14.60
2022-10-14T01:46:23.464Z,13.30
2022-10-14T01:48:56.367Z,14.30
2022-10-14T01:51:30.452Z,14.40
2022-10-14T01:54:03.883Z,14.20
2022-10-14T01:56:38.131Z,14.30
2022-10-14T01:59:11.390Z,14.30
2022-10-14T02:01:41.238Z,14.30
2022-10-14T02:04:16.773Z,14.30
2022-10-14T02:06:50.021Z,14.20
2022-10-14T02:09:24.551Z,14.20
2022-10-14T02:12:06.683Z,14.20
2022-10-14T02:14:40.602Z,14.20
2022-10-14T02:17:16.344Z,14.20
2022-10-14T02:19:49.917Z,14.20
2022-10-14T02:22:28.409Z,14.20
2022-10-14T02:25:00.730Z,14.10
2022-10-14T02:27:30.569Z,14.10
2022-10-14T02:30:00.729Z,14.10
2022-10-14T02:32:31.548Z,14.10
2022-10-14T02:35:00.749Z,14.10
2022-10-14T02:37:30.764Z,14.10
2022-10-14T02:40:03.828Z,14.10
2022-10-14T02:42:32.076Z,14.10
2022-10-14T02:45:02.156Z,14.10
2022-10-14T02:47:32.090Z,14.00
2022-10-14T02:50:00.357Z,14.00
2022-10-14T02:52:28.553Z,14.00
2022-10-14T02:54:56.719Z,14.00
2022-10-14T02:57:24.892Z,14.00
2022-10-14T02:59:53.046Z,13.90
2022-10-14T03:02:21.440Z,13.90
2022-10-14T03:04:51.166Z,13.90
2022-10-14T03:07:19.316Z,13.90
2022-10-14T03:09:47.539Z,13.90
2022-10-14T03:12:15.728Z,13.80
2022-10-14T03:14:44.162Z,13.80
2022-10-14T03:17:12.695Z,13.80
2022-10-14T03:19:40.863Z,13.90
2022-10-14T03:22:10.359Z,13.80
2022-10-14T03:24:38.513Z,13.80
2022-10-14T03:27:06.686Z,13.80
2022-10-14T03:29:34.819Z,13.80
2022-10-14T03:32:03.027Z,13.80
2022-10-14T03:34:31.199Z,13.80
2022-10-14T03:36:59.330Z,13.80
2022-10-14T03:39:28.854Z,13.80
2022-10-14T03:41:57.017Z,13.80
2022-10-14T03:44:25.194Z,13.80
2022-10-14T03:46:53.368Z,13.70
2022-10-14T03:49:21.515Z,13.70
2022-10-14T03:51:49.770Z,13.70
2022-10-14T03:54:18.148Z,13.70
2022-10-14T03:56:47.730Z,13.70
2022-10-14T03:59:15.872Z,13.70
2022-10-14T04:01:44.101Z,13.80
2022-10-14T04:04:12.282Z,13.70
2022-10-14T04:06:40.484Z,13.70
2022-10-14T04:09:08.710Z,13.70
2022-10-14T04:11:36.858Z,13.70
2022-10-14T04:14:06.428Z,13.70
2022-10-14T04:16:34.653Z,13.70
2022-10-14T04:19:03.088Z,13.70
2022-10-14T04:21:31.254Z,13.60
2022-10-14T04:23:59.526Z,13.70
2022-10-14T04:26:27.733Z,13.60
2022-10-14T04:28:56.405Z,13.60
2022-10-14T04:31:26.062Z,13.60
2022-10-14T04:33:54.268Z,13.60
2022-10-14T04:36:22.446Z,13.60
2022-10-14T04:38:50.628Z,13.60
2022-10-14T04:41:18.808Z,13.50
2022-10-14T04:43:46.959Z,13.50
2022-10-14T04:46:15.140Z,13.50
2022-10-14T04:48:44.654Z,13.50
2022-10-14T04:51:12.894Z,13.50
2022-10-14T04:53:41.229Z,13.50
2022-10-14T04:56:09.535Z,13.50
2022-10-14T04:58:37.704Z,13.40
2022-10-14T05:01:05.926Z,13.40
2022-10-14T05:03:34.096Z,13.40
2022-10-14T05:06:03.658Z,13.30
2022-10-14T05:08:31.939Z,13.40
2022-10-14T05:11:00.187Z,13.30
2022-10-14T05:13:28.448Z,13.30
2022-10-14T05:15:56.670Z,13.30
2022-10-14T05:18:24.818Z,13.30
2022-10-14T05:20:52.981Z,13.20
2022-10-14T05:23:22.682Z,13.20
2022-10-14T05:25:51.799Z,13.10
2022-10-14T05:28:20.384Z,13.10
2022-10-14T05:30:48.813Z,13.10
2022-10-14T05:33:17.155Z,13.00
2022-10-14T05:36:00.040Z,13.00
2022-10-14T05:38:32.028Z,13.00
2022-10-14T05:41:00.175Z,12.90
2022-10-14T05:43:32.486Z,12.90
2022-10-14T05:46:01.242Z,13.00
2022-10-14T05:48:29.434Z,13.00
2022-10-14T05:51:01.426Z,13.00
2022-10-14T05:53:32.616Z,13.00
2022-10-14T05:56:04.981Z,13.00
2022-10-14T05:58:33.790Z,13.10
2022-10-14T06:01:02.475Z,13.10
2022-10-14T06:03:30.789Z,13.10
2022-10-14T06:05:59.076Z,13.10
2022-10-14T06:08:27.833Z,13.10
2022-10-14T06:10:57.416Z,13.10
2022-10-14T06:13:26.013Z,13.20
2022-10-14T06:15:54.126Z,13.20
2022-10-14T06:18:22.265Z,13.20
2022-10-14T06:20:54.334Z,13.30
2022-10-14T06:23:22.753Z,13.30
2022-10-14T06:25:50.960Z,13.40
2022-10-14T06:28:20.929Z,13.40
2022-10-14T06:30:51.672Z,13.40
2022-10-14T06:33:20.566Z,13.40
2022-10-14T06:35:49.183Z,13.50
2022-10-14T06:38:17.380Z,13.50
2022-10-14T06:40:45.550Z,13.60
2022-10-14T06:43:13.737Z,13.60
2022-10-14T06:45:43.308Z,13.70
2022-10-14T06:48:11.573Z,13.70
2022-10-14T06:50:40.034Z,13.70
2022-10-14T06:53:08.754Z,13.80
2022-10-14T06:55:37.125Z,13.80
2022-10-14T06:58:05.480Z,13.80
2022-10-14T07:00:33.759Z,13.90
2022-10-14T07:03:03.991Z,13.90
2022-10-14T07:05:32.302Z,14.00
2022-10-14T07:10:29.541Z,14.10
2022-10-14T07:12:57.702Z,14.10
2022-10-14T07:15:25.888Z,14.10
2022-10-14T07:17:54.060Z,14.20
2022-10-14T07:20:23.670Z,14.20
2022-10-14T07:22:55.648Z,14.20
2022-10-14T07:25:23.893Z,14.30
2022-10-14T07:27:54.112Z,14.40
2022-10-14T07:30:22.658Z,14.50
2022-10-14T07:32:50.880Z,14.60
2022-10-14T07:35:20.246Z,14.60
2022-10-14T07:37:50.510Z,14.70
2022-10-14T07:40:18.766Z,14.80
2022-10-14T07:42:47.240Z,14.80
2022-10-14T07:45:17.715Z,14.90
2022-10-14T07:47:48.034Z,15.00
2022-10-14T07:50:16.235Z,15.10
2022-10-14T07:52:44.834Z,15.10
2022-10-14T07:55:14.462Z,15.20
2022-10-14T07:57:42.654Z,15.30
2022-10-14T08:00:11.508Z,15.30
2022-10-14T08:02:39.718Z,15.40
2022-10-14T08:07:56.375Z,15.50
2022-10-14T08:10:25.962Z,15.50
2022-10-14T08:12:54.155Z,15.70
2022-10-14T08:15:22.310Z,15.70
2022-10-14T08:17:50.621Z,15.80
2022-10-14T08:20:18.934Z,15.90
2022-10-14T08:22:47.246Z,16.00
2022-10-14T08:25:15.582Z,16.10
2022-10-14T08:27:45.124Z,16.20
2022-10-14T08:30:13.470Z,16.20
2022-10-14T08:32:41.646Z,16.30
2022-10-14T08:35:12.175Z,16.30
2022-10-14T08:37:40.420Z,16.30
2022-10-14T08:40:10.062Z,16.40
2022-10-14T08:42:44.908Z,16.50
2022-10-14T08:45:20.274Z,16.60
2022-10-14T08:47:48.828Z,16.60
2022-10-14T08:50:26.753Z,16.70
2022-10-14T08:53:00.625Z,16.80
2022-10-14T08:55:34.851Z,16.80
2022-10-14T08:58:11.225Z,17.00
2022-10-14T09:00:43.083Z,16.90
2022-10-14T09:03:19.447Z,16.90
2022-10-14T09:05:53.249Z,17.10
2022-10-14T09:08:28.352Z,17.20
2022-10-14T09:10:56.641Z,17.20
2022-10-14T09:13:32.591Z,16.90
2022-10-14T09:16:07.542Z,17.30
2022-10-14T09:18:41.665Z,17.40
2022-10-14T09:21:47.758Z,17.50
2022-10-14T09:24:18.119Z,17.50
2022-10-14T09:26:48.790Z,17.50
2022-10-14T09:29:25.274Z,17.60
2022-10-14T09:31:57.625Z,17.70
2022-10-14T09:34:32.348Z,17.70
2022-10-14T09:37:07.769Z,17.80
2022-10-14T09:39:40.298Z,17.80
2022-10-14T09:42:19.234Z,17.80
2022-10-14T09:45:10.167Z,17.90
2022-10-14T09:47:50.426Z,17.90
2022-10-14T09:50:25.623Z,18.00
2022-10-14T09:52:58.886Z,17.90
2022-10-14T09:55:27.348Z,18.20
2022-10-14T09:58:05.290Z,18.10
2022-10-14T10:00:37.639Z,18.10
2022-10-14T10:03:11.515Z,18.10
2022-10-14T10:05:41.786Z,18.20
2022-10-14T10:08:18.723Z,18.20
2022-10-14T10:11:03.704Z,18.20
2022-10-14T10:13:40.145Z,18.00
2022-10-14T10:16:18.294Z,18.30
2022-10-14T10:18:47.967Z,18.30
2022-10-14T10:21:20.115Z,18.40
2022-10-14T10:23:58.078Z,18.30
2022-10-14T10:26:29.534Z,18.40
2022-10-14T10:28:59.966Z,18.40
2022-10-14T10:31:53.364Z,18.50
2022-10-14T10:34:54.820Z,18.50
2022-10-14T10:37:29.263Z,18.60
2022-10-14T10:40:20.410Z,18.60
2022-10-14T10:43:00.892Z,18.60
2022-10-14T10:45:40.332Z,18.70
2022-10-14T10:48:18.484Z,18.70
2022-10-14T10:50:57.703Z,18.70
2022-10-14T10:53:42.607Z,18.70
2022-10-14T10:56:24.149Z,18.70
2022-10-14T10:59:07.278Z,18.70
2022-10-14T11:01:44.735Z,18.80
2022-10-14T11:04:31.384Z,18.80
2022-10-14T11:07:29.947Z,18.80
2022-10-14T11:10:24.590Z,18.90
2022-10-14T11:13:00.999Z,18.80
2022-10-14T11:15:43.280Z,18.90
2022-10-14T11:18:15.096Z,18.90
2022-10-14T11:21:04.468Z,18.90
2022-10-14T11:23:41.980Z,19.00
2022-10-14T11:26:30.739Z,19.00
2022-10-14T11:29:06.254Z,19.00
2022-10-14T11:31:41.765Z,19.00
2022-10-14T11:34:29.809Z,19.10
2022-10-14T11:37:08.421Z,19.00
2022-10-14T11:39:46.037Z,19.10
2022-10-14T11:42:27.909Z,19.20
2022-10-14T11:45:08.361Z,19.00
2022-10-14T11:47:40.534Z,19.10
2022-10-14T11:50:16.534Z,19.10
2022-10-14T11:52:51.262Z,19.20
2022-10-14T11:55:24.587Z,19.20
2022-10-14T11:57:56.728Z,19.20
2022-10-14T12:00:28.178Z,19.20
2022-10-14T12:03:04.010Z,19.20
2022-10-14T12:05:40.041Z,19.20
2022-10-14T12:08:17.117Z,19.30
2022-10-14T12:10:50.892Z,19.30
2022-10-14T12:13:33.414Z,19.30
2022-10-14T12:16:05.522Z,19.30
2022-10-14T12:21:18.359Z,19.30
2022-10-14T12:23:49.957Z,19.50
2022-10-14T12:26:44.099Z,19.40
2022-10-14T12:29:15.818Z,19.40
2022-10-14T12:31:50.515Z,19.40
2022-10-14T12:34:35.880Z,19.50
2022-10-14T12:37:42.938Z,19.50
2022-10-14T12:40:29.104Z,19.50
2022-10-14T12:43:16.400Z,19.50
2022-10-14T12:46:03.324Z,19.50
2022-10-14T12:48:34.688Z,19.50
2022-10-14T12:51:13.332Z,19.50
2022-10-14T12:53:51.184Z,19.50
2022-10-14T12:56:31.758Z,19.50
2022-10-14T12:59:03.244Z,19.50
2022-10-14T13:01:35.461Z,19.50
2022-10-14T13:04:08.250Z,19.70
2022-10-14T13:06:39.497Z,19.60
2022-10-14T13:09:39.960Z,19.60
2022-10-14T13:12:46.488Z,19.60
2022-10-14T13:15:36.467Z,19.60
2022-10-14T13:18:50.702Z,19.60
2022-10-14T13:21:32.271Z,19.60
2022-10-14T13:24:02.826Z,19.60
2022-10-14T13:26:39.320Z,19.60
2022-10-14T13:29:17.994Z,19.70
2022-10-14T13:31:56.726Z,19.60
2022-10-14T13:34:37.509Z,19.70
2022-10-14T13:37:30.875Z,19.70
2022-10-14T13:40:06.425Z,19.70
2022-10-14T13:42:37.816Z,19.70
2022-10-14T13:45:10.722Z,19.70
2022-10-14T13:47:43.435Z,19.70
2022-10-14T13:50:13.828Z,19.70
2022-10-14T13:52:42.797Z,19.70
2022-10-14T13:55:20.101Z,19.70
2022-10-14T13:58:13.420Z,19.80
2022-10-14T14:00:46.315Z,19.80
2022-10-14T14:03:25.417Z,19.80
2022-10-14T14:05:54.529Z,19.80
2022-10-14T14:08:39.123Z,19.80
2022-10-14T14:11:17.975Z,19.90
2022-10-14T14:14:00.427Z,20.00
2022-10-14T14:16:32.985Z,19.90
2022-10-14T14:19:08.901Z,19.90
2022-10-14T14:21:38.566Z,19.90
2022-10-14T14:24:17.698Z,20.00
2022-10-14T14:26:46.364Z,19.90
2022-10-14T14:29:18.570Z,19.90
2022-10-14T14:32:05.573Z,19.90
2022-10-14T14:34:37.294Z,19.90
2022-10-14T14:37:25.168Z,19.90
2022-10-14T14:39:58.968Z,19.90
2022-10-14T14:42:30.121Z,20.00
2022-10-14T14:45:02.403Z,19.90
2022-10-14T14:47:31.592Z,20.00
2022-10-14T14:50:29.971Z,19.90
2022-10-14T14:52:52.555Z,19.90
2022-10-14T14:55:44.050Z,19.90
2022-10-14T14:58:22.970Z,19.80
2022-10-14T15:00:54.558Z,19.90
2022-10-14T15:03:24.467Z,19.90
2022-10-14T15:05:58.657Z,19.90
2022-10-14T15:08:29.062Z,19.80
2022-10-14T15:10:58.984Z,19.80
2022-10-14T15:13:33.628Z,19.90
2022-10-14T15:16:01.798Z,19.80
2022-10-14T15:18:30.608Z,19.80
2022-10-14T15:21:16.947Z,19.80
2022-10-14T15:23:58.531Z,19.70
2022-10-14T15:26:31.762Z,19.70
2022-10-14T15:29:17.496Z,19.70
2022-10-14T15:31:47.847Z,19.70
2022-10-14T15:34:22.275Z,19.60
2022-10-14T15:36:54.213Z,19.60
2022-10-14T15:39:23.335Z,19.60
2022-10-14T15:41:52.012Z,19.60
2022-10-14T15:44:20.297Z,19.50
2022-10-14T15:47:06.273Z,19.60
2022-10-14T15:49:37.826Z,19.40
2022-10-14T15:52:07.589Z,19.40
2022-10-14T15:54:35.894Z,19.40
2022-10-14T15:57:05.733Z,19.30
2022-10-14T15:59:33.966Z,19.30
2022-10-14T16:02:02.174Z,19.30
2022-10-14T16:04:30.532Z,19.20
2022-10-14T16:06:58.738Z,19.20
2022-10-14T16:09:29.837Z,19.10
2022-10-14T16:12:00.826Z,19.10
2022-10-14T16:14:29.318Z,19.00
2022-10-14T16:16:57.636Z,19.00
2022-10-14T16:19:25.801Z,18.90
2022-10-14T16:21:53.971Z,18.90
2022-10-14T16:24:25.374Z,18.80
2022-10-14T16:26:55.373Z,18.80
2022-10-14T16:29:23.551Z,18.80
2022-10-14T16:31:52.458Z,18.70
2022-10-14T16:34:21.616Z,18.70
2022-10-14T16:36:50.640Z,18.70
2022-10-14T16:39:20.053Z,18.60
2022-10-14T16:41:48.478Z,18.70
2022-10-14T16:44:27.525Z,18.60
2022-10-14T16:47:14.400Z,18.60
2022-10-14T16:49:44.207Z,18.60
2022-10-14T16:52:12.578Z,18.50
2022-10-14T16:54:41.086Z,18.60
2022-10-14T16:57:09.915Z,18.50
2022-10-14T16:59:39.798Z,18.50
2022-10-14T17:02:11.114Z,18.50
2022-10-14T17:04:40.899Z,18.50
2022-10-14T17:07:09.149Z,18.50
2022-10-14T17:09:39.561Z,18.50
2022-10-14T17:12:12.958Z,18.50
2022-10-14T17:14:44.077Z,18.50
2022-10-14T17:17:13.132Z,18.50
2022-10-14T17:19:41.492Z,18.40
2022-10-14T17:22:09.928Z,18.40
2022-10-14T17:24:38.097Z,18.40
2022-10-14T17:27:06.233Z,18.40
2022-10-14T17:29:34.387Z,18.40
2022-10-14T17:32:03.961Z,18.40
2022-10-14T17:34:33.060Z,18.30
2022-10-14T17:37:01.276Z,18.40
2022-10-14T17:39:29.941Z,18.40
2022-10-14T17:41:58.581Z,18.40
2022-10-14T17:44:28.754Z,18.40
2022-10-14T17:46:57.205Z,18.40
2022-10-14T17:49:26.739Z,18.40
2022-10-14T17:51:54.968Z,18.30
2022-10-14T17:54:23.348Z,18.30
2022-10-14T17:56:51.573Z,18.30
2022-10-14T17:59:19.911Z,18.30
2022-10-14T18:02:04.125Z,18.30
2022-10-14T18:04:34.174Z,18.30
2022-10-14T18:07:02.434Z,18.30
2022-10-14T18:09:30.612Z,18.20
2022-10-14T18:12:14.279Z,18.20
2022-10-14T18:14:42.888Z,18.20
2022-10-14T18:17:12.482Z,18.10
2022-10-14T18:19:44.134Z,18.10
2022-10-14T18:22:14.638Z,18.00
2022-10-14T18:24:43.902Z,18.00
2022-10-14T18:27:12.425Z,17.90
2022-10-14T18:29:40.617Z,17.90
2022-10-14T18:32:08.758Z,17.80
2022-10-14T18:34:36.986Z,17.80
2022-10-14T18:37:07.048Z,17.90
2022-10-14T18:39:35.217Z,17.60
2022-10-14T18:42:03.409Z,17.60
2022-10-14T18:44:31.626Z,17.60
2022-10-14T18:46:59.918Z,17.60
2022-10-14T18:49:28.066Z,17.60
2022-10-14T18:51:56.236Z,17.50
2022-10-14T18:54:25.942Z,17.40
2022-10-14T18:56:54.882Z,17.50
2022-10-14T18:59:24.427Z,17.40
2022-10-14T19:01:53.426Z,17.40
2022-10-14T19:04:23.796Z,17.30
2022-10-14T19:06:52.025Z,17.30
2022-10-14T19:09:24.564Z,17.30
2022-10-14T19:11:54.322Z,17.30
2022-10-14T19:14:22.926Z,17.30
2022-10-14T19:16:51.389Z,17.30
2022-10-14T19:19:21.160Z,17.20
2022-10-14T19:21:54.012Z,17.20
2022-10-14T19:24:22.243Z,17.20
2022-10-14T19:26:50.473Z,17.20
2022-10-14T19:29:20.021Z,17.10
2022-10-14T19:31:50.885Z,17.20
2022-10-14T19:34:19.052Z,17.20
2022-10-14T19:36:47.245Z,17.20
2022-10-14T19:39:18.158Z,17.20
2022-10-14T19:41:47.431Z,17.20
2022-10-14T19:44:17.229Z,17.20
2022-10-14T19:46:46.985Z,17.20
2022-10-14T19:49:17.930Z,17.20
2022-10-14T19:51:46.287Z,17.20
2022-10-14T19:54:15.072Z,17.20
2022-10-14T19:56:43.455Z,17.20
2022-10-14T19:59:13.511Z,17.20
2022-10-14T20:01:41.965Z,17.10
2022-10-14T20:04:11.709Z,17.10
2022-10-14T20:06:40.387Z,17.10
2022-10-14T20:09:09.058Z,17.00
2022-10-14T20:11:37.238Z,17.00
2022-10-14T20:14:05.451Z,17.00
2022-10-14T20:16:33.751Z,17.00
2022-10-14T20:19:01.878Z,17.00
2022-10-14T20:21:31.775Z,17.00
2022-10-14T20:24:00.690Z,17.00
2022-10-14T20:26:29.272Z,16.90
2022-10-14T20:28:57.545Z,16.90
2022-10-14T20:31:26.461Z,16.90
2022-10-14T20:33:56.972Z,16.80
2022-10-14T20:36:25.262Z,16.80
2022-10-14T20:38:54.842Z,16.80
2022-10-14T20:41:24.820Z,16.80
2022-10-14T20:43:54.542Z,16.80
2022-10-14T20:46:24.663Z,16.80
2022-10-14T20:48:55.890Z,16.80
2022-10-14T20:51:24.473Z,16.80
2022-10-14T20:54:01.826Z,16.80
2022-10-14T20:56:34.109Z,16.80
2022-10-14T20:59:04.925Z,16.70
2022-10-14T21:01:33.878Z,16.70
2022-10-14T21:04:03.203Z,16.70
2022-10-14T21:06:32.377Z,16.60
2022-10-14T21:09:02.283Z,16.60
2022-10-14T21:11:30.447Z,16.50
2022-10-14T21:14:00.364Z,16.40
2022-10-14T21:16:30.677Z,16.50
2022-10-14T21:19:00.400Z,16.30
2022-10-14T21:21:31.341Z,16.30
2022-10-14T21:24:01.700Z,16.30
2022-10-14T21:26:31.235Z,16.30
2022-10-14T21:29:00.977Z,16.20
2022-10-14T21:31:29.273Z,16.10
2022-10-14T21:34:02.701Z,16.10
2022-10-14T21:36:33.728Z,16.10
2022-10-14T21:39:07.449Z,16.00
2022-10-14T21:41:35.926Z,16.00
2022-10-14T21:44:04.644Z,16.00
2022-10-14T21:46:33.458Z,15.90
2022-10-14T21:49:01.641Z,15.90
2022-10-14T21:51:31.417Z,15.90
2022-10-14T21:54:00.258Z,15.90
2022-10-14T21:56:30.071Z,15.90
2022-10-14T21:58:58.420Z,15.80
2022-10-14T22:01:29.083Z,15.80
2022-10-14T22:03:59.221Z,15.80
2022-10-14T22:06:28.637Z,15.80
2022-10-14T22:08:58.502Z,15.80
2022-10-14T22:11:30.326Z,15.80
2022-10-14T22:14:00.236Z,15.80
2022-10-14T22:16:29.975Z,15.70
2022-10-14T22:19:00.225Z,15.70
2022-10-14T22:21:30.250Z,15.70
2022-10-14T22:23:59.212Z,15.60
2022-10-14T22:26:30.017Z,15.60
2022-10-14T22:29:00.139Z,15.60
2022-10-14T22:31:28.922Z,15.60
2022-10-14T22:33:57.170Z,15.60
2022-10-14T22:36:28.200Z,15.50
2022-10-14T22:38:57.708Z,15.50
2022-10-14T22:41:30.992Z,15.50
2022-10-14T22:44:05.071Z,15.50
2022-10-14T22:46:36.040Z,15.40
2022-10-14T22:49:04.912Z,15.40
2022-10-14T22:51:34.743Z,15.40
2022-10-14T22:54:03.360Z,15.40
2022-10-14T22:56:32.535Z,15.30
2022-10-14T22:59:02.397Z,15.30
2022-10-14T23:01:32.253Z,15.30
2022-10-14T23:04:01.167Z,15.30
2022-10-14T23:06:30.553Z,15.30
2022-10-14T23:09:00.410Z,15.20
2022-10-14T23:11:30.160Z,15.20
2022-10-14T23:14:01.432Z,15.20
2022-10-14T23:16:34.632Z,15.20
2022-10-14T23:19:03.194Z,15.20
2022-10-14T23:21:32.900Z,15.10
2022-10-14T23:24:03.078Z,15.10
2022-10-14T23:26:34.509Z,15.10
2022-10-14T23:29:06.316Z,15.10
2022-10-14T23:31:37.539Z,15.10
2022-10-14T23:34:08.358Z,15.00
2022-10-14T23:36:37.277Z,15.00
2022-10-14T23:39:06.124Z,15.00
2022-10-14T23:41:34.610Z,15.00
2022-10-14T23:44:02.984Z,14.90
2022-10-14T23:46:31.246Z,14.90
2022-10-14T23:49:07.975Z,14.90
2022-10-14T23:51:49.135Z,14.90
2022-10-14T23:54:17.565Z,14.80
2022-10-14T23:56:46.095Z,14.90
2022-10-14T23:59:14.449Z,14.90
